Terminal Aerodrome Forecast
Issued by NWS Sterling, VA

Home | Current Version | Previous Version | Text Only | Print | Product List | Glossary On
Versions: 1 2 3 4 5 6 7 8 9 10 11 12 13 14 15 16 17 18 19 20 21 22 23 24 25 26 27
000
FTUS41 KLWX 041120
TAFBWI
TAF
KBWI 041120Z 0412/0518 04006KT P6SM SCT050 SCT150
     FM041600 06006KT P6SM VCTS BKN050CB
     FM042200 10011G18KT P6SM BKN050
     FM050600 06009G17KT P6SM BKN070
     FM050900 06009KT P6SM SCT015 BKN020
     FM051400 07008KT P6SM BKN080=

USA.gov is the U.S. government's official web portal to all federal, state and local government web resources and services.